createdAt,value
2022-09-23T00:00:05.207Z,3.17
2022-09-23T00:00:17.205Z,3.08
2022-09-23T00:00:29.343Z,2.95
2022-09-23T00:00:45.728Z,3.17
2022-09-23T00:01:03.127Z,3.17
2022-09-23T00:01:15.251Z,3.10
2022-09-23T00:01:27.484Z,3.20
2022-09-23T00:01:39.462Z,3.30
2022-09-23T00:01:51.470Z,3.15
2022-09-23T00:02:03.608Z,3.35
2022-09-23T00:02:16.700Z,3.33
2022-09-23T00:02:28.705Z,3.55
2022-09-23T00:02:40.772Z,3.50
2022-09-23T00:02:52.800Z,3.40
2022-09-23T00:03:05.048Z,3.30
2022-09-23T00:03:16.991Z,3.20
2022-09-23T00:03:30.635Z,3.13
2022-09-23T00:03:46.816Z,3.22
2022-09-23T00:04:00.028Z,3.30
2022-09-23T00:04:11.979Z,3.33
2022-09-23T00:04:23.926Z,3.60
2022-09-23T00:04:35.902Z,3.60
2022-09-23T00:04:47.797Z,3.58
2022-09-23T00:04:59.704Z,3.67
2022-09-23T00:05:11.602Z,3.60
2022-09-23T00:05:23.536Z,3.50
2022-09-23T00:05:35.658Z,3.20
2022-09-23T00:05:58.589Z,3.10
2022-09-23T00:06:13.473Z,3.25
2022-09-23T00:06:27.972Z,3.30
2022-09-23T00:06:40.060Z,3.30
2022-09-23T00:06:52.078Z,3.17
2022-09-23T00:07:04.044Z,3.30
2022-09-23T00:07:16.313Z,3.53
2022-09-23T00:07:28.220Z,3.40
2022-09-23T00:07:40.159Z,3.40
2022-09-23T00:07:52.122Z,3.50
2022-09-23T00:08:08.095Z,3.30
2022-09-23T00:08:20.045Z,3.25
2022-09-23T00:08:32.297Z,3.60
2022-09-23T00:08:44.863Z,3.70
2022-09-23T00:08:56.755Z,3.30
2022-09-23T00:09:08.643Z,3.38
2022-09-23T00:09:20.528Z,3.38
2022-09-23T00:09:32.565Z,3.25
2022-09-23T00:09:44.446Z,3.28
2022-09-23T00:09:56.398Z,3.30
2022-09-23T00:10:08.749Z,3.40
2022-09-23T00:10:21.594Z,3.58
2022-09-23T00:10:37.257Z,3.40
2022-09-23T00:10:49.162Z,3.38
2022-09-23T00:11:07.081Z,3.45
2022-09-23T00:11:22.094Z,3.60
2022-09-23T00:11:34.335Z,3.50
2022-09-23T00:11:46.211Z,3.30
2022-09-23T00:11:58.333Z,3.30
2022-09-23T00:12:10.415Z,3.40
2022-09-23T00:12:22.386Z,3.50
2022-09-23T00:12:34.258Z,3.50
2022-09-23T00:12:46.160Z,3.45
2022-09-23T00:12:58.771Z,3.53
2022-09-23T00:13:10.703Z,3.72
2022-09-23T00:13:24.393Z,3.70
2022-09-23T00:13:37.243Z,3.60
2022-09-23T00:13:52.998Z,3.65
2022-09-23T00:14:04.942Z,3.53
2022-09-23T00:14:17.503Z,3.30
2022-09-23T00:14:29.430Z,3.30
2022-09-23T00:14:41.322Z,3.30
2022-09-23T00:14:53.303Z,3.47
2022-09-23T00:15:05.656Z,3.42
2022-09-23T00:15:18.006Z,3.45
2022-09-23T00:15:31.100Z,3.53
2022-09-23T00:15:43.063Z,3.60
2022-09-23T00:15:54.958Z,3.63
2022-09-23T00:16:10.486Z,3.47
2022-09-23T00:16:25.699Z,3.45
2022-09-23T00:16:38.197Z,3.50
2022-09-23T00:16:50.351Z,3.47
2022-09-23T00:17:02.290Z,3.70
2022-09-23T00:17:14.284Z,3.85
2022-09-23T00:17:27.173Z,3.72
2022-09-23T00:17:40.318Z,3.55
2022-09-23T00:17:52.707Z,3.42
2022-09-23T00:18:04.633Z,3.40
2022-09-23T00:18:17.856Z,3.40
2022-09-23T00:18:29.731Z,3.30
2022-09-23T00:18:42.184Z,3.50
2022-09-23T00:18:54.765Z,3.70
2022-09-23T00:19:06.696Z,3.95
2022-09-23T00:19:18.598Z,3.97
2022-09-23T00:19:30.462Z,4.05
2022-09-23T00:19:42.556Z,3.70
2022-09-23T00:19:55.351Z,3.78
2022-09-23T00:20:09.280Z,3.65
2022-09-23T00:20:21.205Z,3.40
2022-09-23T00:20:35.157Z,3.47
2022-09-23T00:20:47.310Z,3.50
2022-09-23T00:21:04.579Z,3.50
2022-09-23T00:21:17.313Z,3.70
2022-09-23T00:21:29.423Z,3.70
2022-09-23T00:21:42.500Z,3.60
2022-09-23T00:21:56.661Z,3.42
2022-09-23T00:22:08.790Z,3.72
2022-09-23T00:22:21.223Z,3.88
2022-09-23T00:22:33.232Z,3.78
2022-09-23T00:22:45.596Z,3.72
2022-09-23T00:22:57.719Z,3.92
2022-09-23T00:23:09.652Z,4.00
2022-09-23T00:23:21.552Z,3.92
2022-09-23T00:23:34.203Z,3.80
2022-09-23T00:23:46.232Z,4.05
2022-09-23T00:23:58.590Z,4.10
2022-09-23T00:24:10.528Z,3.88
2022-09-23T00:24:23.463Z,3.90
2022-09-23T00:24:35.367Z,4.00
2022-09-23T00:24:47.387Z,4.00
2022-09-23T00:24:59.268Z,4.07
2022-09-23T00:25:11.936Z,3.80
2022-09-23T00:25:23.804Z,3.67
2022-09-23T00:25:35.675Z,3.63
2022-09-23T00:25:59.341Z,3.58
2022-09-23T00:26:15.617Z,3.25
2022-09-23T00:26:27.813Z,3.22
2022-09-23T00:26:39.779Z,3.42
2022-09-23T00:26:51.665Z,3.65
2022-09-23T00:27:03.744Z,3.97
2022-09-23T00:27:16.018Z,4.10
2022-09-23T00:27:28.991Z,3.95
2022-09-23T00:27:41.911Z,3.80
2022-09-23T00:27:53.993Z,3.70
2022-09-23T00:28:05.933Z,3.70
2022-09-23T00:28:17.808Z,3.75
2022-09-23T00:28:30.609Z,4.00
2022-09-23T00:28:43.125Z,3.90
2022-09-23T00:28:55.008Z,3.95
2022-09-23T00:29:06.924Z,3.83
2022-09-23T00:29:18.824Z,3.90
2022-09-23T00:29:31.620Z,3.88
2022-09-23T00:29:43.550Z,3.85
2022-09-23T00:29:55.500Z,3.50
2022-09-23T00:30:09.585Z,3.50
2022-09-23T00:30:23.384Z,3.70
2022-09-23T00:30:35.444Z,3.88
2022-09-23T00:30:47.412Z,3.70
2022-09-23T00:31:10.627Z,3.53
2022-09-23T00:31:25.316Z,3.78
2022-09-23T00:31:37.197Z,3.65
2022-09-23T00:31:49.175Z,3.55
2022-09-23T00:32:01.253Z,3.70
2022-09-23T00:32:13.341Z,3.80
2022-09-23T00:32:25.669Z,3.58
2022-09-23T00:32:38.054Z,3.50
2022-09-23T00:32:49.945Z,3.55
2022-09-23T00:33:01.807Z,3.63
2022-09-23T00:33:13.740Z,3.63
2022-09-23T00:33:25.611Z,3.85
2022-09-23T00:33:37.946Z,4.00
2022-09-23T00:33:59.282Z,4.60
2022-09-23T00:34:11.692Z,3.60
2022-09-23T00:34:23.580Z,3.58
2022-09-23T00:34:35.437Z,3.75
2022-09-23T00:34:47.910Z,3.70
2022-09-23T00:35:00.035Z,3.80
2022-09-23T00:35:11.934Z,3.75
2022-09-23T00:35:23.809Z,3.90
2022-09-23T00:35:35.704Z,3.80
2022-09-23T00:35:47.730Z,3.67
2022-09-23T00:36:04.504Z,3.83
2022-09-23T00:36:16.405Z,3.90
2022-09-23T00:36:29.521Z,3.90
2022-09-23T00:36:42.795Z,3.75
2022-09-23T00:36:54.650Z,3.63
2022-09-23T00:37:06.568Z,3.63
2022-09-23T00:37:19.669Z,3.67
2022-09-23T00:37:31.716Z,3.70
2022-09-23T00:37:43.598Z,3.47
2022-09-23T00:37:56.120Z,3.35
2022-09-23T00:38:08.060Z,3.30
2022-09-23T00:38:19.947Z,3.33
2022-09-23T00:38:33.829Z,3.50
2022-09-23T00:38:46.145Z,3.65
2022-09-23T00:38:58.361Z,3.50
2022-09-23T00:39:10.288Z,3.53
2022-09-23T00:39:22.972Z,3.50
2022-09-23T00:39:34.834Z,3.60
2022-09-23T00:39:46.867Z,3.65
2022-09-23T00:39:59.647Z,3.70
2022-09-23T00:40:13.062Z,3.72
2022-09-23T00:40:26.027Z,3.90
2022-09-23T00:40:43.568Z,3.80
2022-09-23T00:40:55.793Z,3.53
2022-09-23T00:41:07.859Z,3.53
2022-09-23T00:41:19.991Z,3.58
2022-09-23T00:41:32.665Z,3.70
2022-09-23T00:41:44.563Z,3.80
2022-09-23T00:41:56.462Z,3.72
2022-09-23T00:42:18.540Z,3.72
2022-09-23T00:42:30.521Z,3.80
2022-09-23T00:42:51.924Z,3.70
2022-09-23T00:43:04.646Z,3.67
2022-09-23T00:43:17.182Z,3.70
2022-09-23T00:43:49.945Z,3.30
2022-09-23T00:44:23.221Z,3.90
2022-09-23T00:44:48.104Z,3.92
2022-09-23T00:45:00.831Z,3.60
2022-09-23T00:45:12.884Z,3.38
2022-09-23T00:45:24.770Z,3.40
2022-09-23T00:45:36.717Z,3.40
2022-09-23T00:45:51.059Z,3.45
2022-09-23T00:46:03.630Z,3.40
2022-09-23T00:46:23.200Z,3.55
2022-09-23T00:46:39.964Z,3.85
2022-09-23T00:46:52.242Z,3.80
2022-09-23T00:47:04.325Z,3.70
2022-09-23T00:47:19.387Z,3.95
2022-09-23T00:47:33.625Z,4.10
2022-09-23T00:47:52.302Z,3.83
2022-09-23T00:48:05.003Z,3.70
2022-09-23T00:48:20.300Z,3.80
2022-09-23T00:48:32.302Z,3.90
2022-09-23T00:48:45.649Z,3.90
2022-09-23T00:49:07.213Z,3.70
2022-09-23T00:49:28.353Z,3.60
2022-09-23T00:49:40.535Z,3.60
2022-09-23T00:50:09.877Z,3.70
2022-09-23T00:50:35.039Z,3.38
2022-09-23T00:50:51.021Z,3.85
2022-09-23T00:51:04.691Z,3.70
2022-09-23T00:51:21.291Z,3.65
2022-09-23T00:51:38.554Z,3.60
2022-09-23T00:51:57.428Z,3.22
2022-09-23T00:52:15.368Z,3.30
2022-09-23T00:52:28.330Z,3.78
2022-09-23T00:52:40.545Z,3.63
2022-09-23T00:52:56.703Z,3.45
2022-09-23T00:53:12.419Z,3.47
2022-09-23T00:53:26.639Z,3.63
2022-09-23T00:53:39.719Z,4.03
2022-09-23T00:53:52.653Z,4.13
2022-09-23T00:54:06.220Z,3.95
2022-09-23T00:54:18.691Z,3.78
2022-09-23T00:54:30.971Z,3.97
2022-09-23T00:54:43.460Z,3.90
2022-09-23T00:54:57.592Z,3.65
2022-09-23T00:55:15.882Z,3.50
2022-09-23T00:55:34.537Z,3.60
2022-09-23T00:55:54.392Z,4.10
2022-09-23T00:56:10.132Z,4.07
2022-09-23T00:56:24.127Z,3.83
2022-09-23T00:56:38.864Z,3.92
2022-09-23T00:56:51.275Z,3.83
2022-09-23T00:57:05.597Z,3.88
2022-09-23T00:57:18.234Z,3.90
2022-09-23T00:57:31.169Z,3.80
2022-09-23T00:57:44.626Z,3.97
2022-09-23T00:57:59.114Z,3.85
2022-09-23T00:58:15.536Z,3.70
2022-09-23T00:58:31.583Z,3.63
2022-09-23T00:58:45.341Z,3.90
2022-09-23T00:58:57.326Z,3.83
2022-09-23T00:59:10.682Z,3.65
2022-09-23T00:59:24.333Z,3.70
2022-09-23T00:59:37.094Z,3.67
2022-09-23T00:59:50.858Z,3.60
2022-09-23T01:00:04.406Z,3.50
2022-09-23T01:00:16.399Z,3.85
2022-09-23T01:00:28.697Z,4.05
2022-09-23T01:00:42.049Z,3.92
2022-09-23T01:00:55.497Z,3.80
2022-09-23T01:01:07.933Z,4.10
2022-09-23T01:01:21.120Z,4.20
2022-09-23T01:01:33.166Z,3.92
2022-09-23T01:01:46.085Z,3.90
2022-09-23T01:02:00.227Z,3.90
2022-09-23T01:02:14.223Z,3.90
2022-09-23T01:02:28.107Z,3.65
2022-09-23T01:02:40.160Z,3.90
2022-09-23T01:02:52.737Z,4.05
2022-09-23T01:03:06.625Z,3.83
2022-09-23T01:03:19.568Z,3.80
2022-09-23T01:03:32.011Z,3.80
2022-09-23T01:03:45.423Z,3.78
2022-09-23T01:03:58.335Z,3.42
2022-09-23T01:04:10.256Z,3.53
2022-09-23T01:04:24.451Z,3.65
2022-09-23T01:04:36.602Z,3.78
2022-09-23T01:04:50.763Z,4.00
2022-09-23T01:05:06.112Z,3.97
2022-09-23T01:05:19.273Z,3.58
2022-09-23T01:05:33.455Z,3.60
2022-09-23T01:05:46.888Z,3.70
2022-09-23T01:05:59.559Z,3.70
2022-09-23T01:06:12.964Z,3.80
2022-09-23T01:06:25.247Z,3.92
2022-09-23T01:06:37.232Z,3.83
2022-09-23T01:06:49.362Z,3.95
2022-09-23T01:07:01.253Z,3.85
2022-09-23T01:07:13.632Z,4.07
2022-09-23T01:07:25.518Z,3.90
2022-09-23T01:07:37.493Z,4.05
2022-09-23T01:07:50.003Z,4.28
2022-09-23T01:08:04.756Z,4.55
2022-09-23T01:08:17.516Z,4.35
2022-09-23T01:08:29.755Z,4.35
2022-09-23T01:08:45.892Z,4.00
2022-09-23T01:08:57.775Z,3.72
2022-09-23T01:09:09.682Z,3.70
2022-09-23T01:09:22.961Z,3.97
2022-09-23T01:09:35.308Z,4.13
2022-09-23T01:09:48.591Z,4.00
2022-09-23T01:10:01.811Z,4.00
2022-09-23T01:10:16.795Z,4.10
2022-09-23T01:10:36.988Z,3.88
2022-09-23T01:10:48.813Z,3.85
2022-09-23T01:11:18.987Z,3.90
2022-09-23T01:11:48.313Z,3.70
2022-09-23T01:12:12.500Z,3.80
2022-09-23T01:12:42.701Z,3.83
2022-09-23T01:13:42.571Z,3.97
2022-09-23T01:14:06.639Z,3.95
2022-09-23T01:14:34.300Z,4.05
2022-09-23T01:14:57.951Z,3.88
2022-09-23T01:15:24.619Z,4.00
2022-09-23T01:15:45.795Z,3.47
2022-09-23T01:15:57.617Z,3.88
2022-09-23T01:16:15.998Z,3.92
2022-09-23T01:16:38.004Z,4.05
2022-09-23T01:17:04.389Z,4.05
2022-09-23T01:17:29.438Z,4.00
2022-09-23T01:17:50.336Z,4.03
2022-09-23T01:18:21.107Z,3.95
2022-09-23T01:18:35.645Z,3.85
2022-09-23T01:19:15.204Z,3.65
2022-09-23T01:19:36.168Z,3.90
2022-09-23T01:20:27.913Z,3.80
2022-09-23T01:20:42.428Z,3.95
2022-09-23T01:21:33.268Z,4.22
2022-09-23T01:21:58.367Z,3.78
2022-09-23T01:22:19.470Z,4.00
2022-09-23T01:22:51.546Z,3.90
2022-09-23T01:23:22.033Z,3.60
2022-09-23T01:23:55.446Z,4.13
2022-09-23T01:24:22.999Z,4.30
2022-09-23T01:24:51.251Z,4.25
2022-09-23T01:25:08.860Z,3.95
2022-09-23T01:25:48.511Z,4.15
2022-09-23T01:26:06.228Z,4.05
2022-09-23T01:26:39.511Z,3.88
2022-09-23T01:27:22.312Z,3.85
2022-09-23T01:27:58.762Z,4.07
2022-09-23T01:28:35.100Z,4.00
2022-09-23T01:29:15.594Z,4.20
2022-09-23T01:30:06.776Z,4.05
2022-09-23T01:30:47.569Z,4.05
2022-09-23T01:31:08.267Z,4.07
2022-09-23T01:31:31.957Z,4.10
2022-09-23T01:31:51.300Z,4.10
2022-09-23T01:32:37.820Z,4.30
2022-09-23T01:33:20.021Z,4.65
2022-09-23T01:33:53.079Z,4.20
2022-09-23T01:34:32.931Z,4.20
2022-09-23T01:34:47.710Z,4.30
2022-09-23T01:35:04.684Z,4.30
2022-09-23T01:35:38.465Z,4.20
2022-09-23T01:36:04.259Z,4.10
2022-09-23T01:36:27.980Z,4.10
2022-09-23T01:36:51.052Z,4.50
2022-09-23T01:37:31.723Z,4.32
2022-09-23T01:38:09.543Z,4.63
2022-09-23T01:38:32.731Z,4.25
2022-09-23T01:39:08.628Z,4.00
2022-09-23T01:39:37.889Z,4.10
2022-09-23T01:40:11.365Z,5.30
2022-09-23T01:40:42.512Z,4.35
2022-09-23T01:41:04.489Z,4.35
2022-09-23T01:41:37.521Z,4.40
2022-09-23T01:42:39.473Z,4.47
2022-09-23T01:43:04.453Z,4.40
2022-09-23T01:43:36.192Z,4.40
2022-09-23T01:43:53.173Z,4.50
2022-09-23T01:44:10.154Z,4.38
2022-09-23T01:44:48.090Z,4.30
2022-09-23T01:45:08.983Z,4.50
2022-09-23T01:45:43.398Z,4.40
2022-09-23T01:45:59.797Z,4.60
2022-09-23T01:46:23.184Z,4.47
2022-09-23T01:46:51.571Z,4.50
2022-09-23T01:47:15.289Z,4.40
2022-09-23T01:47:30.497Z,4.47
2022-09-23T01:47:51.651Z,4.72
2022-09-23T01:48:13.885Z,4.72
2022-09-23T01:48:46.512Z,4.47
2022-09-23T01:49:06.791Z,4.60
2022-09-23T01:49:34.408Z,4.50
2022-09-23T01:49:53.924Z,4.57
2022-09-23T01:50:28.705Z,4.65
2022-09-23T01:50:56.258Z,4.82
2022-09-23T01:51:19.027Z,4.63
2022-09-23T01:51:35.553Z,4.18
2022-09-23T01:51:59.908Z,4.22
2022-09-23T01:52:17.579Z,4.25
2022-09-23T01:52:40.283Z,4.55
2022-09-23T01:52:54.967Z,4.43
2022-09-23T01:53:14.674Z,4.70
2022-09-23T01:53:49.441Z,4.50
2022-09-23T01:54:15.853Z,4.70
2022-09-23T01:54:35.692Z,4.43
2022-09-23T01:54:56.563Z,4.35
2022-09-23T01:55:20.691Z,4.60
2022-09-23T01:55:38.300Z,4.70
2022-09-23T01:55:58.932Z,4.72
2022-09-23T01:56:17.739Z,4.75
2022-09-23T01:56:38.501Z,4.63
2022-09-23T01:57:01.581Z,4.73
2022-09-23T01:57:27.202Z,4.70
2022-09-23T01:57:44.813Z,4.03
2022-09-23T01:58:19.466Z,3.90
2022-09-23T01:58:55.897Z,4.53
2022-09-23T01:59:21.470Z,4.38
2022-09-23T01:59:53.498Z,4.40
2022-09-23T02:00:11.628Z,4.20
2022-09-23T02:00:24.512Z,4.15
2022-09-23T02:00:41.384Z,4.20
2022-09-23T02:00:59.369Z,4.32
2022-09-23T02:01:23.385Z,5.00
2022-09-23T02:01:41.295Z,5.00
2022-09-23T02:02:06.193Z,4.45
2022-09-23T02:02:28.961Z,4.50
2022-09-23T02:02:56.235Z,4.63
2022-09-23T02:03:15.291Z,4.53
2022-09-23T02:03:48.385Z,4.38
2022-09-23T02:04:08.730Z,4.43
2022-09-23T02:04:39.532Z,4.45
2022-09-23T02:05:11.040Z,4.47
2022-09-23T02:05:25.928Z,4.40
2022-09-23T02:05:43.480Z,4.55
2022-09-23T02:06:05.149Z,4.43
2022-09-23T02:06:23.167Z,4.68
2022-09-23T02:06:51.195Z,4.55
2022-09-23T02:07:10.629Z,4.65
2022-09-23T02:07:29.705Z,4.70
2022-09-23T02:07:50.203Z,4.70
2022-09-23T02:08:17.667Z,4.73
2022-09-23T02:08:35.609Z,4.57
2022-09-23T02:08:56.454Z,4.70
2022-09-23T02:09:15.117Z,4.65
2022-09-23T02:09:35.495Z,4.60
2022-09-23T02:09:57.821Z,4.80
2022-09-23T02:10:19.779Z,4.63
2022-09-23T02:10:37.337Z,5.25
2022-09-23T02:10:56.382Z,5.28
2022-09-23T02:11:15.955Z,4.82
2022-09-23T02:11:30.871Z,5.00
2022-09-23T02:11:48.059Z,4.70
2022-09-23T02:12:06.015Z,4.72
2022-09-23T02:12:20.488Z,4.55
2022-09-23T02:12:38.339Z,4.53
2022-09-23T02:12:54.820Z,4.80
2022-09-23T02:13:15.584Z,4.82
2022-09-23T02:13:32.503Z,4.60
2022-09-23T02:13:50.969Z,4.53
2022-09-23T02:14:06.804Z,4.78
2022-09-23T02:14:24.550Z,4.90
2022-09-23T02:14:44.320Z,4.82
2022-09-23T02:15:29.032Z,4.70
2022-09-23T02:15:50.435Z,4.63
2022-09-23T02:16:09.499Z,4.82
2022-09-23T02:16:30.181Z,4.97
2022-09-23T02:16:47.446Z,4.78
2022-09-23T02:17:08.689Z,4.57
2022-09-23T02:17:34.189Z,4.68
2022-09-23T02:17:52.168Z,4.72
2022-09-23T02:18:13.175Z,4.70
2022-09-23T02:18:34.045Z,4.72
2022-09-23T02:18:53.225Z,4.80
2022-09-23T02:19:13.228Z,4.70
2022-09-23T02:19:33.813Z,4.45
2022-09-23T02:19:50.504Z,4.60
2022-09-23T02:20:06.868Z,4.60
2022-09-23T02:20:39.497Z,4.60
2022-09-23T02:20:55.730Z,4.53
2022-09-23T02:21:09.494Z,4.57
2022-09-23T02:21:27.409Z,4.47
2022-09-23T02:21:52.752Z,4.70
2022-09-23T02:22:23.652Z,4.57
2022-09-23T02:22:56.809Z,4.68
2022-09-23T02:23:13.078Z,5.03
2022-09-23T02:23:31.911Z,4.95
2022-09-23T02:23:51.308Z,4.60
2022-09-23T02:24:12.711Z,4.50
2022-09-23T02:24:34.543Z,4.32
2022-09-23T02:24:46.682Z,4.75
2022-09-23T02:24:58.797Z,4.80
2022-09-23T02:25:12.494Z,4.80
2022-09-23T02:25:35.682Z,4.78
2022-09-23T02:25:56.482Z,4.65
2022-09-23T02:26:19.596Z,4.70
2022-09-23T02:26:49.748Z,4.80
2022-09-23T02:27:19.767Z,4.70
2022-09-23T02:27:50.452Z,4.72
2022-09-23T02:28:22.544Z,4.82
2022-09-23T02:28:53.419Z,4.80
2022-09-23T02:29:42.751Z,4.85
2022-09-23T02:30:09.420Z,4.60
2022-09-23T02:30:27.147Z,4.63
2022-09-23T02:30:49.311Z,4.70
2022-09-23T02:31:14.711Z,4.70
2022-09-23T02:32:00.141Z,4.50
2022-09-23T02:32:25.063Z,4.60
2022-09-23T02:32:55.539Z,4.30
2022-09-23T02:33:26.454Z,4.82
2022-09-23T02:33:55.389Z,4.40
2022-09-23T02:34:32.050Z,4.53
2022-09-23T02:35:10.066Z,4.30
2022-09-23T02:35:32.767Z,4.45
2022-09-23T02:36:15.135Z,4.40
2022-09-23T02:36:36.863Z,4.45
2022-09-23T02:36:53.069Z,4.40
2022-09-23T02:37:11.641Z,4.22
2022-09-23T02:37:43.556Z,4.40
2022-09-23T02:38:13.413Z,4.43
2022-09-23T02:38:36.071Z,4.53
2022-09-23T02:39:00.539Z,4.78
2022-09-23T02:39:14.370Z,4.20
2022-09-23T02:39:36.718Z,4.30
2022-09-23T02:40:00.577Z,4.43
2022-09-23T02:40:37.989Z,4.35
2022-09-23T02:41:04.587Z,4.13
2022-09-23T02:41:32.432Z,4.35
2022-09-23T02:42:10.055Z,4.85
2022-09-23T02:42:30.612Z,4.50
2022-09-23T02:42:47.184Z,4.47
2022-09-23T02:43:11.348Z,4.25
2022-09-23T02:43:42.798Z,4.15
2022-09-23T02:44:06.396Z,4.53
2022-09-23T02:44:19.930Z,4.45
2022-09-23T02:44:32.927Z,4.30
2022-09-23T02:44:44.812Z,4.60
2022-09-23T02:44:56.834Z,4.80
2022-09-23T02:45:09.019Z,4.65
2022-09-23T02:45:20.990Z,4.50
2022-09-23T02:45:33.866Z,4.40
2022-09-23T02:45:47.303Z,4.50
2022-09-23T02:46:00.359Z,4.50
2022-09-23T02:46:12.443Z,4.40
2022-09-23T02:46:24.508Z,4.30
2022-09-23T02:46:37.033Z,4.43
2022-09-23T02:46:52.242Z,4.50
2022-09-23T02:47:04.234Z,4.47
2022-09-23T02:47:20.447Z,4.35
2022-09-23T02:47:35.824Z,4.50
2022-09-23T02:47:53.252Z,4.30
2022-09-23T02:48:14.643Z,4.20
2022-09-23T02:48:32.350Z,4.63
2022-09-23T02:49:12.478Z,4.30
2022-09-23T02:49:29.658Z,4.45
2022-09-23T02:49:41.568Z,4.40
2022-09-23T02:49:56.229Z,4.47
2022-09-23T02:50:09.406Z,4.50
2022-09-23T02:50:22.539Z,4.50
2022-09-23T02:50:34.728Z,4.50
2022-09-23T02:50:47.697Z,4.57
2022-09-23T02:51:02.218Z,4.68
2022-09-23T02:51:14.639Z,4.45
2022-09-23T02:51:28.841Z,4.57
2022-09-23T02:51:41.483Z,4.60
2022-09-23T02:51:54.491Z,4.47
2022-09-23T02:52:07.511Z,4.60
2022-09-23T02:52:19.441Z,4.63
2022-09-23T02:52:32.545Z,4.50
2022-09-23T02:52:46.276Z,4.63
2022-09-23T02:52:58.881Z,4.70
2022-09-23T02:53:10.788Z,4.53
2022-09-23T02:53:23.991Z,4.70
2022-09-23T02:53:36.556Z,4.65
2022-09-23T02:53:48.605Z,4.60
2022-09-23T02:54:03.393Z,4.63
2022-09-23T02:54:20.283Z,4.45
2022-09-23T02:54:33.801Z,4.18
2022-09-23T02:54:45.772Z,4.30
2022-09-23T02:54:58.100Z,4.45
2022-09-23T02:55:13.024Z,4.50
2022-09-23T02:55:31.231Z,4.70
2022-09-23T02:55:43.496Z,4.68
2022-09-23T02:55:55.355Z,4.80
2022-09-23T02:56:16.068Z,4.80
2022-09-23T02:56:28.657Z,4.30
2022-09-23T02:56:41.073Z,4.30
2022-09-23T02:56:53.383Z,4.70
2022-09-23T02:57:07.694Z,4.70
2022-09-23T02:57:19.735Z,4.53
2022-09-23T02:57:32.162Z,4.60
2022-09-23T02:57:45.260Z,4.40
2022-09-23T02:58:01.391Z,4.38
2022-09-23T02:58:14.175Z,4.45
2022-09-23T02:58:26.243Z,4.63
2022-09-23T02:58:38.160Z,4.70
2022-09-23T02:58:52.958Z,4.63
2022-09-23T02:59:06.052Z,4.60
2022-09-23T02:59:20.220Z,4.70
2022-09-23T02:59:34.051Z,4.50
2022-09-23T02:59:46.671Z,4.63
2022-09-23T02:59:58.599Z,4.63
2022-09-23T03:00:11.267Z,4.70
2022-09-23T03:00:23.765Z,4.80
2022-09-23T03:01:06.040Z,4.80
2022-09-23T03:01:31.381Z,4.55
2022-09-23T03:01:49.145Z,4.80
2022-09-23T03:02:06.917Z,4.25
2022-09-23T03:02:33.951Z,4.63
2022-09-23T03:03:08.266Z,4.40
2022-09-23T03:03:33.974Z,4.25
2022-09-23T03:04:05.043Z,4.40
2022-09-23T03:04:50.746Z,4.50
2022-09-23T03:05:19.236Z,4.38
2022-09-23T03:05:37.989Z,4.70
2022-09-23T03:05:55.212Z,4.90
2022-09-23T03:06:36.789Z,4.60
2022-09-23T03:06:54.434Z,4.50
2022-09-23T03:07:24.304Z,4.65
2022-09-23T03:08:02.840Z,4.40
2022-09-23T03:09:18.827Z,4.50
2022-09-23T03:09:43.123Z,4.43
2022-09-23T03:10:21.816Z,4.55
2022-09-23T03:10:58.305Z,4.80
2022-09-23T03:11:13.387Z,4.47
2022-09-23T03:11:26.143Z,4.65
2022-09-23T03:11:42.737Z,4.70
2022-09-23T03:12:16.402Z,4.72
2022-09-23T03:12:42.323Z,5.00
2022-09-23T03:13:26.153Z,4.60
2022-09-23T03:14:16.813Z,4.95
2022-09-23T03:14:49.234Z,4.50
2022-09-23T03:15:10.053Z,4.60
2022-09-23T03:15:33.331Z,4.60
2022-09-23T03:16:06.087Z,4.63
2022-09-23T03:16:34.640Z,4.82
2022-09-23T03:17:03.490Z,4.50
2022-09-23T03:17:29.427Z,5.00
2022-09-23T03:18:08.165Z,4.90
2022-09-23T03:18:42.081Z,4.60
2022-09-23T03:19:19.726Z,4.68
2022-09-23T03:19:46.272Z,4.70
2022-09-23T03:20:15.333Z,4.97
2022-09-23T03:20:34.185Z,5.00
2022-09-23T03:21:03.105Z,4.78
2022-09-23T03:21:25.009Z,4.90
2022-09-23T03:21:55.289Z,4.80
2022-09-23T03:22:35.484Z,4.82
2022-09-23T03:22:54.526Z,4.90
2022-09-23T03:23:10.553Z,5.00
2022-09-23T03:23:31.283Z,4.80
2022-09-23T03:23:45.180Z,4.47
2022-09-23T03:24:00.549Z,4.68
2022-09-23T03:24:14.776Z,5.10
2022-09-23T03:24:31.170Z,5.18
2022-09-23T03:24:45.516Z,5.07
2022-09-23T03:25:05.883Z,4.90
2022-09-23T03:25:24.123Z,4.60
2022-09-23T03:25:40.146Z,4.45
2022-09-23T03:25:55.496Z,4.70
2022-09-23T03:26:13.564Z,4.97
2022-09-23T03:26:31.408Z,5.13
2022-09-23T03:26:47.032Z,5.13
2022-09-23T03:27:03.233Z,4.90
2022-09-23T03:27:20.026Z,5.10
2022-09-23T03:27:34.671Z,5.07
2022-09-23T03:27:46.575Z,4.70
2022-09-23T03:28:01.168Z,4.70
2022-09-23T03:28:16.481Z,4.90
2022-09-23T03:28:28.973Z,4.90
2022-09-23T03:28:44.298Z,5.05
2022-09-23T03:28:56.564Z,5.00
2022-09-23T03:29:11.733Z,4.90
2022-09-23T03:29:24.236Z,4.97
2022-09-23T03:29:36.921Z,4.85
2022-09-23T03:29:51.614Z,4.85
2022-09-23T03:30:06.784Z,4.90
2022-09-23T03:30:19.048Z,4.78
2022-09-23T03:30:37.152Z,4.80
2022-09-23T03:30:54.252Z,4.95
2022-09-23T03:31:06.192Z,5.00
2022-09-23T03:31:18.331Z,5.00
2022-09-23T03:31:32.289Z,4.75
2022-09-23T03:31:44.925Z,4.68
2022-09-23T03:31:57.984Z,4.90
2022-09-23T03:32:10.129Z,4.72
2022-09-23T03:32:26.739Z,4.60
2022-09-23T03:32:42.740Z,4.90
2022-09-23T03:32:57.028Z,5.25
2022-09-23T03:33:12.408Z,5.20
2022-09-23T03:33:28.793Z,4.93
2022-09-23T03:33:47.034Z,5.00
2022-09-23T03:34:01.837Z,4.90
2022-09-23T03:34:21.361Z,5.10
2022-09-23T03:34:35.317Z,4.95
2022-09-23T03:34:50.591Z,4.85
2022-09-23T03:35:04.836Z,5.07
2022-09-23T03:35:17.172Z,4.95
2022-09-23T03:35:32.654Z,4.72
2022-09-23T03:36:12.487Z,4.57
2022-09-23T03:36:49.979Z,5.22
2022-09-23T03:37:14.131Z,5.28
2022-09-23T03:37:32.350Z,5.07
2022-09-23T03:37:46.836Z,4.60
2022-09-23T03:38:11.968Z,5.00
2022-09-23T03:38:27.855Z,5.22
2022-09-23T03:38:45.180Z,5.18
2022-09-23T03:39:11.655Z,5.03
2022-09-23T03:39:32.046Z,5.60
2022-09-23T03:39:50.812Z,5.03
2022-09-23T03:40:23.979Z,5.00
2022-09-23T03:40:43.354Z,5.10
2022-09-23T03:40:58.036Z,4.97
2022-09-23T03:41:12.096Z,4.97
2022-09-23T03:41:32.657Z,5.05
2022-09-23T03:41:50.797Z,5.38
2022-09-23T03:42:24.559Z,5.57
2022-09-23T03:42:38.084Z,5.13
2022-09-23T03:42:50.361Z,5.00
2022-09-23T03:43:05.009Z,4.82
2022-09-23T03:43:17.027Z,4.85
2022-09-23T03:43:30.042Z,4.90
2022-09-23T03:43:44.122Z,4.88
2022-09-23T03:43:58.389Z,4.90
2022-09-23T03:44:11.975Z,4.88
2022-09-23T03:44:24.589Z,4.88
2022-09-23T03:44:40.445Z,4.97
2022-09-23T03:44:54.217Z,5.20
2022-09-23T03:45:11.077Z,5.20
2022-09-23T03:45:27.908Z,4.93
2022-09-23T03:45:42.556Z,5.18
2022-09-23T03:45:57.569Z,5.22
2022-09-23T03:46:09.769Z,5.28
2022-09-23T03:46:25.384Z,5.18
2022-09-23T03:46:37.489Z,4.88
2022-09-23T03:46:52.448Z,4.93
2022-09-23T03:47:04.514Z,5.10
2022-09-23T03:47:16.815Z,5.30
2022-09-23T03:47:28.823Z,5.15
2022-09-23T03:47:42.198Z,5.03
2022-09-23T03:47:54.196Z,5.18
2022-09-23T03:48:07.131Z,5.22
2022-09-23T03:48:21.345Z,5.18
2022-09-23T03:48:33.308Z,5.20
2022-09-23T03:48:45.882Z,5.20
2022-09-23T03:49:05.366Z,5.20
2022-09-23T03:49:24.047Z,5.03
2022-09-23T03:49:39.648Z,5.10
2022-09-23T03:49:52.160Z,4.78
2022-09-23T03:50:04.316Z,4.80
2022-09-23T03:50:20.798Z,4.95
2022-09-23T03:50:32.727Z,5.22
2022-09-23T03:50:44.609Z,5.35
2022-09-23T03:50:56.504Z,5.20
2022-09-23T03:51:23.657Z,4.93
2022-09-23T03:51:35.741Z,5.00
2022-09-23T03:51:47.630Z,5.03
2022-09-23T03:52:00.111Z,5.20
2022-09-23T03:52:12.028Z,5.20
2022-09-23T03:52:25.871Z,5.10
2022-09-23T03:52:39.648Z,5.20
2022-09-23T03:52:51.532Z,5.32
2022-09-23T03:53:03.408Z,5.28
2022-09-23T03:53:15.352Z,5.20
2022-09-23T03:53:27.234Z,5.03
2022-09-23T03:53:39.537Z,5.10
2022-09-23T03:53:51.434Z,5.20
2022-09-23T03:54:03.303Z,5.38
2022-09-23T03:54:15.662Z,5.40
2022-09-23T03:54:29.896Z,5.22
2022-09-23T03:54:41.786Z,5.22
2022-09-23T03:54:53.810Z,5.38
2022-09-23T03:55:07.046Z,5.30
2022-09-23T03:55:19.446Z,5.40
2022-09-23T03:55:32.175Z,5.30
2022-09-23T03:55:45.533Z,5.10
2022-09-23T03:55:57.404Z,4.85
2022-09-23T03:56:11.579Z,4.70
2022-09-23T03:56:23.490Z,5.00
2022-09-23T03:56:35.468Z,5.10
2022-09-23T03:56:47.856Z,5.00
2022-09-23T03:57:01.957Z,5.10
2022-09-23T03:57:14.344Z,5.30
2022-09-23T03:57:26.320Z,5.28
2022-09-23T03:57:38.430Z,4.90
2022-09-23T03:57:50.475Z,4.88
2022-09-23T03:58:04.720Z,5.03
2022-09-23T03:58:16.609Z,4.90
2022-09-23T03:58:28.669Z,4.80
2022-09-23T03:58:40.629Z,4.70
2022-09-23T03:58:52.508Z,4.78
2022-09-23T03:59:04.416Z,4.85
2022-09-23T03:59:16.641Z,5.05
2022-09-23T03:59:32.444Z,5.60
2022-09-23T03:59:44.356Z,6.53
2022-09-23T03:59:56.239Z,7.13
2022-09-23T04:00:09.442Z,7.82